Algoma Mariner — CFN5517 — position and weather

sailwx.info

Track history (hours):
 
Tides and Currents Weather Stations Pressure Air Temp Water Temp Dewpoint Dewpoint Depression Visibility Wind Speed Wind Dir Waves Ship Positions

Algoma Mariner

Last reported at 2014-Jul-23 10:12 UTC. Time now 2014-Jul-25 06:48 UTC.
Position N 46°34' W 072°07'.

Length 225 m; draft 7.2 m.

Type: Cargo ship. MMSI: 316014050.

Date/timePositionNaut miles runAvg speedWind from/ knotsBaromVisibWave heightAir tempDewpointWater temp
2014-Jul-23 10:12N 46°34' W 072°07'913.6
2014-Jul-23 09:33N 46°27' W 072°15'1413.7
2014-Jul-23 08:33N 46°20' W 072°32'1212.4
2014-Jul-23 07:34N 46°14' W 072°47'2612.7
2014-Jul-23 05:30N 45°54' W 073°13'5 5.7
2014-Jul-23 04:34N 45°50' W 073°17'0 0.0
2014-Jul-23 03:33N 45°50' W 073°17'0 0.0
2014-Jul-23 02:33N 45°50' W 073°17'0 0.0
2014-Jul-23 01:33N 45°50' W 073°17'0 0.0
2014-Jul-23 00:33N 45°50' W 073°17'0 0.0
2014-Jul-22 23:33N 45°50' W 073°17'0 0.0
2014-Jul-22 22:33N 45°50' W 073°17'0 0.0
2014-Jul-22 21:33N 45°50' W 073°17'0 0.0
2014-Jul-22 20:33N 45°50' W 073°17'0 0.0
2014-Jul-22 19:33N 45°50' W 073°17'0 0.0
2014-Jul-22 18:33N 45°50' W 073°17'2 1.8
2014-Jul-22 17:33N 45°52' W 073°16'6 5.8
2014-Jul-22 16:31N 45°57' W 073°13'9 6.5
2014-Jul-22 15:12N 46°04' W 073°05'15 7.8
2014-Jul-22 13:14N 46°13' W 072°48'7 9.8
2014-Jul-22 12:33N 46°16' W 072°39'8 8.2
2014-Jul-22 11:33N 46°22' W 072°30'9 8.8
2014-Jul-22 10:33N 46°26' W 072°19'10 9.5
2014-Jul-22 09:33N 46°33' W 072°09'23211.9
2014-Jul-21 14:00N 49°00' W 067°42'   260 / 61024.010.8 0.5-7.7 6.0
2014-Jul-19 07:00N 49°18' W 064°00'17612.6 280 / 171023.010.8 1.515.0 9.0
2014-Jul-18 17:00N 48°30' W 059°42'28 0.8 220 / 221017.010.8 2.017.0 10.0
2014-Jul-17 06:00N 48°30' W 059°00'141 3.9 250 / 131017.010.8 1.520.0 12.0
2014-Jul-15 18:00N 48°54' W 062°30'28912.0 210 / 101013.010.8 1.016.0 9.0
2014-Jul-14 18:00N 47°54' W 069°36'13914.2 200 / 181011.0 5.4 2.018.0 3.0
2014-Jul-14 08:15N 46°27' W 072°15'913.7
2014-Jul-14 07:34N 46°23' W 072°27'1111.4
2014-Jul-14 06:33N 46°16' W 072°40'3410.9
2014-Jul-14 03:28N 45°52' W 073°15'3 3.0
2014-Jul-14 02:33N 45°50' W 073°17'0 0.0
2014-Jul-14 01:33N 45°50' W 073°17'0 0.0
2014-Jul-14 00:33N 45°50' W 073°17'0 0.0
2014-Jul-13 23:33N 45°50' W 073°17'0 0.0
2014-Jul-13 22:33N 45°50' W 073°17'0 0.0
2014-Jul-13 21:33N 45°50' W 073°17'0 0.0
2014-Jul-13 20:33N 45°50' W 073°17'0 0.0
2014-Jul-13 19:33N 45°50' W 073°17'0 0.0
2014-Jul-13 18:33N 45°50' W 073°17'0 0.0
2014-Jul-13 17:33N 45°50' W 073°17'0 0.0
2014-Jul-13 16:33N 45°50' W 073°17'3 3.1
2014-Jul-13 15:33N 45°53' W 073°15'  
Track history (hours):
 
Tides and Currents Weather Stations Pressure Air Temp Water Temp Dewpoint Dewpoint Depression Visibility Wind Speed Wind Dir Waves Ship Positions

Algoma Mariner

Last reported at 2014-Jul-23 10:12 UTC. Time now 2014-Jul-25 06:48 UTC.
Position N 46°34' W 072°07'.

Length 225 m; draft 7.2 m.

Type: Cargo ship. MMSI: 316014050.

Date/timePositionNaut miles runAvg speedWind from/ knotsBaromVisibWave heightAir tempDewpointWater temp
2014-Jul-23 10:12N 46°34' W 072°07'913.6
2014-Jul-23 09:33N 46°27' W 072°15'1413.7
2014-Jul-23 08:33N 46°20' W 072°32'1212.4
2014-Jul-23 07:34N 46°14' W 072°47'2612.7
2014-Jul-23 05:30N 45°54' W 073°13'5 5.7
2014-Jul-23 04:34N 45°50' W 073°17'0 0.0
2014-Jul-23 03:33N 45°50' W 073°17'0 0.0
2014-Jul-23 02:33N 45°50' W 073°17'0 0.0
2014-Jul-23 01:33N 45°50' W 073°17'0 0.0
2014-Jul-23 00:33N 45°50' W 073°17'0 0.0
2014-Jul-22 23:33N 45°50' W 073°17'0 0.0
2014-Jul-22 22:33N 45°50' W 073°17'0 0.0
2014-Jul-22 21:33N 45°50' W 073°17'0 0.0
2014-Jul-22 20:33N 45°50' W 073°17'0 0.0
2014-Jul-22 19:33N 45°50' W 073°17'0 0.0
2014-Jul-22 18:33N 45°50' W 073°17'2 1.8
2014-Jul-22 17:33N 45°52' W 073°16'6 5.8
2014-Jul-22 16:31N 45°57' W 073°13'9 6.5
2014-Jul-22 15:12N 46°04' W 073°05'15 7.8
2014-Jul-22 13:14N 46°13' W 072°48'7 9.8
2014-Jul-22 12:33N 46°16' W 072°39'8 8.2
2014-Jul-22 11:33N 46°22' W 072°30'9 8.8
2014-Jul-22 10:33N 46°26' W 072°19'10 9.5
2014-Jul-22 09:33N 46°33' W 072°09'23211.9
2014-Jul-21 14:00N 49°00' W 067°42'   260 / 61024.010.8 0.5-7.7 6.0
2014-Jul-19 07:00N 49°18' W 064°00'17612.6 280 / 171023.010.8 1.515.0 9.0
2014-Jul-18 17:00N 48°30' W 059°42'28 0.8 220 / 221017.010.8 2.017.0 10.0
2014-Jul-17 06:00N 48°30' W 059°00'141 3.9 250 / 131017.010.8 1.520.0 12.0
2014-Jul-15 18:00N 48°54' W 062°30'28912.0 210 / 101013.010.8 1.016.0 9.0
2014-Jul-14 18:00N 47°54' W 069°36'13914.2 200 / 181011.0 5.4 2.018.0 3.0
2014-Jul-14 08:15N 46°27' W 072°15'913.7
2014-Jul-14 07:34N 46°23' W 072°27'1111.4
2014-Jul-14 06:33N 46°16' W 072°40'3410.9
2014-Jul-14 03:28N 45°52' W 073°15'3 3.0
2014-Jul-14 02:33N 45°50' W 073°17'0 0.0
2014-Jul-14 01:33N 45°50' W 073°17'0 0.0
2014-Jul-14 00:33N 45°50' W 073°17'0 0.0
2014-Jul-13 23:33N 45°50' W 073°17'0 0.0
2014-Jul-13 22:33N 45°50' W 073°17'0 0.0
2014-Jul-13 21:33N 45°50' W 073°17'0 0.0
2014-Jul-13 20:33N 45°50' W 073°17'0 0.0
2014-Jul-13 19:33N 45°50' W 073°17'0 0.0
2014-Jul-13 18:33N 45°50' W 073°17'0 0.0
2014-Jul-13 17:33N 45°50' W 073°17'0 0.0
2014-Jul-13 16:33N 45°50' W 073°17'3 3.1
2014-Jul-13 15:33N 45°53' W 073°15'  

Dump ship's entire track history